createdAt,value
2023-01-12T00:00:25.594Z,86.17
2023-01-12T00:01:28.230Z,86.50
2023-01-12T00:02:30.205Z,87.09
2023-01-12T00:03:32.773Z,86.45
2023-01-12T00:04:34.866Z,85.76
2023-01-12T00:05:36.610Z,85.49
2023-01-12T00:06:39.113Z,85.44
2023-01-12T00:07:40.680Z,86.36
2023-01-12T00:08:42.874Z,86.21
2023-01-12T00:09:44.837Z,85.98
2023-01-12T00:10:46.662Z,86.14
2023-01-12T00:11:48.837Z,85.38
2023-01-12T00:12:50.629Z,86.30
2023-01-12T00:13:52.258Z,85.45
2023-01-12T00:14:53.930Z,85.67
2023-01-12T00:16:17.833Z,86.16
2023-01-12T00:17:19.863Z,86.47
2023-01-12T00:18:21.834Z,86.10
2023-01-12T00:19:24.031Z,85.65
2023-01-12T00:20:25.724Z,85.43
2023-01-12T00:21:27.476Z,85.93
2023-01-12T00:22:29.085Z,85.71
2023-01-12T00:23:30.812Z,85.60
2023-01-12T00:24:32.873Z,86.43
2023-01-12T00:25:34.516Z,87.39
2023-01-12T00:26:36.669Z,87.41
2023-01-12T00:27:38.347Z,87.56
2023-01-12T00:28:41.572Z,88.16
2023-01-12T00:29:45.347Z,88.45
2023-01-12T00:30:47.105Z,88.42
2023-01-12T00:31:49.353Z,87.42
2023-01-12T00:32:51.795Z,88.59
2023-01-12T00:33:53.676Z,87.56
2023-01-12T00:34:55.411Z,86.29
2023-01-12T00:36:03.588Z,86.02
2023-01-12T00:37:05.618Z,86.08
2023-01-12T00:38:07.295Z,86.28
2023-01-12T00:39:09.341Z,86.85
2023-01-12T00:40:11.959Z,86.67
2023-01-12T00:41:37.116Z,87.78
2023-01-12T00:42:57.702Z,89.53
2023-01-12T00:44:18.721Z,89.29
2023-01-12T00:45:25.926Z,87.83
2023-01-12T00:46:32.562Z,88.27
2023-01-12T00:47:35.353Z,87.74
2023-01-12T00:48:36.922Z,87.45
2023-01-12T00:49:41.716Z,87.01
2023-01-12T00:50:43.573Z,87.17
2023-01-12T00:51:46.304Z,88.27
2023-01-12T00:52:48.241Z,88.49
2023-01-12T00:53:50.798Z,87.82
2023-01-12T00:54:53.069Z,87.99
2023-01-12T00:55:54.834Z,87.58
2023-01-12T00:56:57.313Z,88.02
2023-01-12T00:57:59.381Z,88.23
2023-01-12T00:59:01.153Z,87.11
2023-01-12T01:00:04.248Z,86.97
2023-01-12T01:01:09.146Z,87.12
2023-01-12T01:02:12.368Z,87.28
2023-01-12T01:03:14.143Z,87.35
2023-01-12T01:04:16.154Z,87.44
2023-01-12T01:05:18.481Z,87.70
2023-01-12T01:06:21.259Z,87.72
2023-01-12T01:07:22.987Z,87.68
2023-01-12T01:08:24.586Z,88.45
2023-01-12T01:09:26.685Z,87.53
2023-01-12T01:10:29.936Z,87.68
2023-01-12T01:11:31.997Z,87.74
2023-01-12T01:12:33.759Z,86.28
2023-01-12T01:13:40.915Z,85.96
2023-01-12T01:14:42.523Z,86.25
2023-01-12T01:15:44.181Z,86.13
2023-01-12T01:16:45.983Z,85.86
2023-01-12T01:17:47.948Z,86.20
2023-01-12T01:18:50.753Z,86.52
2023-01-12T01:19:52.335Z,86.31
2023-01-12T01:20:54.463Z,85.48
2023-01-12T01:21:55.935Z,85.45
2023-01-12T01:22:57.710Z,85.56
2023-01-12T01:23:59.783Z,85.04
2023-01-12T01:25:02.411Z,85.20
2023-01-12T01:26:10.847Z,85.28
2023-01-12T01:27:12.567Z,85.75
2023-01-12T01:28:15.454Z,85.13
2023-01-12T01:29:17.541Z,85.74
2023-01-12T01:30:19.363Z,85.42
2023-01-12T01:31:24.246Z,85.68
2023-01-12T01:32:26.037Z,85.79
2023-01-12T01:33:28.278Z,85.76
2023-01-12T01:34:30.020Z,85.52
2023-01-12T01:35:31.875Z,84.94
2023-01-12T01:36:34.222Z,85.24
2023-01-12T01:37:36.230Z,84.19
2023-01-12T01:38:38.132Z,84.59
2023-01-12T01:39:39.934Z,82.70
2023-01-12T01:40:43.543Z,82.24
2023-01-12T01:41:45.852Z,82.69
2023-01-12T01:42:47.728Z,82.94
2023-01-12T01:43:57.120Z,84.46
2023-01-12T01:45:00.745Z,82.20
2023-01-12T01:46:13.025Z,82.60
2023-01-12T01:47:27.353Z,81.75
2023-01-12T01:48:33.999Z,81.61
2023-01-12T01:49:38.926Z,82.02
2023-01-12T01:50:53.831Z,83.33
2023-01-12T01:52:03.275Z,83.43
2023-01-12T01:53:09.515Z,83.26
2023-01-12T01:54:11.322Z,82.74
2023-01-12T01:55:17.177Z,82.64
2023-01-12T01:56:25.612Z,82.85
2023-01-12T01:57:36.941Z,82.79
2023-01-12T01:58:43.148Z,83.07
2023-01-12T01:59:51.090Z,82.34
2023-01-12T02:00:54.500Z,82.29
2023-01-12T02:01:56.402Z,83.13
2023-01-12T02:03:03.191Z,83.95
2023-01-12T02:04:06.312Z,82.57
2023-01-12T02:05:09.267Z,81.50
2023-01-12T02:06:11.277Z,82.61
2023-01-12T02:07:13.204Z,82.79
2023-01-12T02:08:35.172Z,81.87
2023-01-12T02:09:37.770Z,81.32
2023-01-12T02:10:39.594Z,81.00
2023-01-12T02:12:02.390Z,81.21
2023-01-12T02:13:22.823Z,80.35
2023-01-12T02:14:43.465Z,80.38
2023-01-12T02:16:16.960Z,80.82
2023-01-12T02:17:41.339Z,80.93
2023-01-12T02:19:07.838Z,80.95
2023-01-12T02:20:09.435Z,81.70
2023-01-12T02:21:35.708Z,81.05
2023-01-12T02:22:59.259Z,81.56
2023-01-12T02:24:16.585Z,81.78
2023-01-12T02:25:43.906Z,81.06
2023-01-12T02:27:07.335Z,81.14
2023-01-12T02:28:34.132Z,80.97
2023-01-12T02:29:58.033Z,81.51
2023-01-12T02:31:38.993Z,82.00
2023-01-12T02:32:41.036Z,82.38
2023-01-12T02:33:54.695Z,84.28
2023-01-12T02:35:07.521Z,84.53
2023-01-12T02:36:32.588Z,84.59
2023-01-12T02:37:44.171Z,86.06
2023-01-12T02:39:04.061Z,84.88
2023-01-12T02:40:25.456Z,84.18
2023-01-12T02:41:48.459Z,83.37
2023-01-12T02:43:06.881Z,83.54
2023-01-12T02:44:16.644Z,82.64
2023-01-12T02:45:43.152Z,83.02
2023-01-12T02:46:50.886Z,83.07
2023-01-12T02:48:13.418Z,82.20
2023-01-12T02:49:18.959Z,82.15
2023-01-12T02:50:32.783Z,82.58
2023-01-12T02:51:43.989Z,81.15
2023-01-12T02:52:51.659Z,81.85
2023-01-12T02:54:06.306Z,83.14
2023-01-12T02:55:09.625Z,80.89
2023-01-12T02:56:16.872Z,80.16
2023-01-12T02:57:23.075Z,80.10
2023-01-12T02:58:29.073Z,80.79
2023-01-12T02:59:34.756Z,80.83
2023-01-12T03:00:39.017Z,80.65
2023-01-12T03:01:42.905Z,81.60
2023-01-12T03:02:45.085Z,81.39
2023-01-12T03:03:48.739Z,81.03
2023-01-12T03:04:51.208Z,81.27
2023-01-12T03:05:58.870Z,81.85
2023-01-12T03:07:01.133Z,81.35
2023-01-12T03:08:05.952Z,80.92
2023-01-12T03:09:08.867Z,81.26
2023-01-12T03:10:29.741Z,81.41
2023-01-12T03:11:34.833Z,81.53
2023-01-12T03:12:39.205Z,81.97
2023-01-12T03:13:57.355Z,81.22
2023-01-12T03:15:02.663Z,81.80
2023-01-12T03:16:08.540Z,81.42
2023-01-12T03:17:17.691Z,81.82
2023-01-12T03:18:34.901Z,81.52
2023-01-12T03:19:36.977Z,81.19
2023-01-12T03:20:45.322Z,81.81
2023-01-12T03:21:57.307Z,82.40
2023-01-12T03:23:05.462Z,82.71
2023-01-12T03:24:17.204Z,81.95
2023-01-12T03:25:20.951Z,81.92
2023-01-12T03:26:28.064Z,82.19
2023-01-12T03:27:48.340Z,81.91
2023-01-12T03:28:56.548Z,82.26
2023-01-12T03:30:03.068Z,81.48
2023-01-12T03:31:11.968Z,81.29
2023-01-12T03:32:14.848Z,82.26
2023-01-12T03:33:16.509Z,81.94
2023-01-12T03:34:19.161Z,82.68
2023-01-12T03:35:28.941Z,83.30
2023-01-12T03:37:08.053Z,82.60
2023-01-12T03:38:22.308Z,82.99
2023-01-12T03:39:52.599Z,82.34
2023-01-12T03:41:05.388Z,82.42
2023-01-12T03:42:24.970Z,82.85
2023-01-12T03:44:02.757Z,82.36
2023-01-12T03:45:32.284Z,82.08
2023-01-12T03:46:41.302Z,83.11
2023-01-12T03:47:44.011Z,82.43
2023-01-12T03:49:01.034Z,81.42
2023-01-12T03:50:12.098Z,82.11
2023-01-12T03:51:28.746Z,81.60
2023-01-12T03:52:31.908Z,81.65
2023-01-12T03:53:36.095Z,81.58
2023-01-12T03:54:45.059Z,81.95
2023-01-12T03:55:50.497Z,82.43
2023-01-12T03:56:54.663Z,81.11
2023-01-12T03:57:57.135Z,81.29
2023-01-12T03:58:59.712Z,81.10
2023-01-12T04:00:04.926Z,81.14
2023-01-12T04:01:08.626Z,80.80
2023-01-12T04:02:10.777Z,81.82
2023-01-12T04:03:15.202Z,81.25
2023-01-12T04:04:16.883Z,81.37
2023-01-12T04:05:18.755Z,82.10
2023-01-12T04:06:20.333Z,81.02
2023-01-12T04:07:23.848Z,79.91
2023-01-12T04:08:25.506Z,80.35
2023-01-12T04:09:28.543Z,80.60
2023-01-12T04:10:30.554Z,80.71
2023-01-12T04:11:52.020Z,80.29
2023-01-12T04:12:54.004Z,79.66
2023-01-12T04:13:55.893Z,80.02
2023-01-12T04:14:57.556Z,79.78
2023-01-12T04:15:59.125Z,79.33
2023-01-12T04:17:00.770Z,79.43
2023-01-12T04:18:03.007Z,78.88
2023-01-12T04:19:04.516Z,78.94
2023-01-12T04:20:06.383Z,79.14
2023-01-12T04:21:27.947Z,78.63
2023-01-12T04:22:44.989Z,78.93
2023-01-12T04:23:46.814Z,78.66
2023-01-12T04:24:51.889Z,78.32
2023-01-12T04:25:53.761Z,78.65
2023-01-12T04:26:55.682Z,78.91
2023-01-12T04:28:01.873Z,79.51
2023-01-12T04:29:03.963Z,78.70
2023-01-12T04:30:06.648Z,78.41
2023-01-12T04:31:10.001Z,78.67
2023-01-12T04:32:11.961Z,78.28
2023-01-12T04:33:13.892Z,78.42
2023-01-12T04:34:15.588Z,78.21
2023-01-12T04:35:17.823Z,78.68
2023-01-12T04:36:19.373Z,78.28
2023-01-12T04:37:24.926Z,78.50
2023-01-12T04:38:26.605Z,78.09
2023-01-12T04:39:29.437Z,77.99
2023-01-12T04:40:31.127Z,77.89
2023-01-12T04:41:33.031Z,77.78
2023-01-12T04:42:56.656Z,77.96
2023-01-12T04:43:58.243Z,77.40
2023-01-12T04:45:00.220Z,77.13
2023-01-12T04:46:06.975Z,77.48
2023-01-12T04:47:09.178Z,76.81
2023-01-12T04:48:16.615Z,77.14
2023-01-12T04:49:18.190Z,77.40
2023-01-12T04:50:20.057Z,77.50
2023-01-12T04:51:22.361Z,77.67
2023-01-12T04:52:23.995Z,78.23
2023-01-12T04:53:26.234Z,78.42
2023-01-12T04:54:28.315Z,77.37
2023-01-12T04:55:31.394Z,77.59
2023-01-12T04:56:33.185Z,77.40
2023-01-12T04:57:35.599Z,77.80
2023-01-12T04:58:38.943Z,78.78
2023-01-12T04:59:40.705Z,78.64
2023-01-12T05:00:42.578Z,78.79
2023-01-12T05:01:44.340Z,79.18
2023-01-12T05:02:45.989Z,79.20
2023-01-12T05:03:48.396Z,79.59
2023-01-12T05:04:50.703Z,80.60
2023-01-12T05:05:52.631Z,80.31
2023-01-12T05:06:54.348Z,81.75
2023-01-12T05:08:18.151Z,82.03
2023-01-12T05:09:38.317Z,82.40
2023-01-12T05:10:40.118Z,83.79
2023-01-12T05:11:43.344Z,83.28
2023-01-12T05:12:44.975Z,82.46
2023-01-12T05:13:47.528Z,83.21
2023-01-12T05:14:50.097Z,83.70
2023-01-12T05:15:51.962Z,83.45
2023-01-12T05:16:53.810Z,82.63
2023-01-12T05:17:57.070Z,83.57
2023-01-12T05:18:58.933Z,83.43
2023-01-12T05:20:01.043Z,84.64
2023-01-12T05:21:03.596Z,86.80
2023-01-12T05:22:05.690Z,85.04
2023-01-12T05:23:08.353Z,84.84
2023-01-12T05:24:09.976Z,85.50
2023-01-12T05:25:11.644Z,85.18
2023-01-12T05:26:14.633Z,85.87
2023-01-12T05:27:16.222Z,85.47
2023-01-12T05:28:18.116Z,85.42
2023-01-12T05:29:19.942Z,85.22
2023-01-12T05:30:21.627Z,85.63
2023-01-12T05:31:23.537Z,84.83
2023-01-12T05:32:26.518Z,83.93
2023-01-12T05:33:28.118Z,83.76
2023-01-12T05:34:29.915Z,84.11
2023-01-12T05:35:32.113Z,83.67
2023-01-12T05:36:34.206Z,83.80
2023-01-12T05:37:35.754Z,84.61
2023-01-12T05:38:37.551Z,83.95
2023-01-12T05:39:39.046Z,83.43
2023-01-12T05:40:42.415Z,84.06
2023-01-12T05:42:02.723Z,82.63
2023-01-12T05:43:22.948Z,82.21
2023-01-12T05:44:25.055Z,82.29
2023-01-12T05:45:26.785Z,82.15
2023-01-12T05:46:40.242Z,81.84
2023-01-12T05:47:42.184Z,82.43
2023-01-12T05:48:44.300Z,82.36
2023-01-12T05:49:46.037Z,81.79
2023-01-12T05:50:47.837Z,82.07
2023-01-12T05:51:49.978Z,81.92
2023-01-12T05:52:52.576Z,81.90
2023-01-12T05:53:54.996Z,82.52
2023-01-12T05:54:56.665Z,81.68
2023-01-12T05:55:58.573Z,81.79
2023-01-12T05:57:00.371Z,81.79
2023-01-12T05:58:02.350Z,82.38
2023-01-12T05:59:07.426Z,82.37
2023-01-12T06:00:09.634Z,83.13
2023-01-12T06:01:11.424Z,82.62
2023-01-12T06:02:17.628Z,83.07
2023-01-12T06:03:19.575Z,83.60
2023-01-12T06:04:21.373Z,83.38
2023-01-12T06:05:22.952Z,82.75
2023-01-12T06:06:27.440Z,83.64
2023-01-12T06:07:30.072Z,83.46
2023-01-12T06:08:31.947Z,83.67
2023-01-12T06:09:33.640Z,83.10
2023-01-12T06:10:37.082Z,83.18
2023-01-12T06:11:57.665Z,82.57
2023-01-12T06:13:18.574Z,82.59
2023-01-12T06:14:20.159Z,82.97
2023-01-12T06:15:21.959Z,83.06
2023-01-12T06:16:24.299Z,84.14
2023-01-12T06:17:26.054Z,83.60
2023-01-12T06:18:28.000Z,83.61
2023-01-12T06:19:29.878Z,83.12
2023-01-12T06:20:31.780Z,83.47
2023-01-12T06:21:34.659Z,83.92
2023-01-12T06:22:36.569Z,83.19
2023-01-12T06:23:38.485Z,83.43
2023-01-12T06:24:40.525Z,83.17
2023-01-12T06:25:42.841Z,83.12
2023-01-12T06:26:45.176Z,83.47
2023-01-12T06:27:46.845Z,82.76
2023-01-12T06:28:48.991Z,83.24
2023-01-12T06:29:50.842Z,83.41
2023-01-12T06:31:00.970Z,83.55
2023-01-12T06:32:02.506Z,83.12
2023-01-12T06:33:04.760Z,83.56
2023-01-12T06:34:08.539Z,84.12
2023-01-12T06:35:19.163Z,83.02
2023-01-12T06:36:21.393Z,82.56
2023-01-12T06:37:23.232Z,83.21
2023-01-12T06:38:26.826Z,82.44
2023-01-12T06:39:29.597Z,82.75
2023-01-12T06:40:32.727Z,82.22
2023-01-12T06:41:53.750Z,82.19
2023-01-12T06:42:55.870Z,81.72
2023-01-12T06:43:58.162Z,82.89
2023-01-12T06:45:01.558Z,82.22
2023-01-12T06:46:03.784Z,82.27
2023-01-12T06:47:05.479Z,82.11
2023-01-12T06:48:07.214Z,81.41
2023-01-12T06:49:09.614Z,81.76
2023-01-12T06:50:12.059Z,81.71
2023-01-12T06:51:14.306Z,81.69
2023-01-12T06:52:16.031Z,81.67
2023-01-12T06:53:17.607Z,81.88
2023-01-12T06:54:19.275Z,81.33
2023-01-12T06:55:21.049Z,81.23
2023-01-12T06:56:23.670Z,81.03
2023-01-12T06:57:25.913Z,81.73
2023-01-12T06:58:27.896Z,82.33
2023-01-12T06:59:29.652Z,81.07
2023-01-12T07:00:32.329Z,80.95
2023-01-12T07:01:34.007Z,80.71
2023-01-12T07:02:36.100Z,81.07
2023-01-12T07:03:37.806Z,80.81
2023-01-12T07:04:41.816Z,80.53
2023-01-12T07:05:44.197Z,80.23
2023-01-12T07:06:46.108Z,80.43
2023-01-12T07:07:47.840Z,80.61
2023-01-12T07:08:50.276Z,80.59
2023-01-12T07:09:51.963Z,81.04
2023-01-12T07:10:54.361Z,79.79
2023-01-12T07:11:56.138Z,80.54
2023-01-12T07:13:00.845Z,80.20
2023-01-12T07:14:02.634Z,79.69
2023-01-12T07:15:06.381Z,79.34
2023-01-12T07:16:08.363Z,79.73
2023-01-12T07:17:10.056Z,79.21
2023-01-12T07:18:11.637Z,79.54
2023-01-12T07:19:15.244Z,79.40
2023-01-12T07:20:17.265Z,79.35
2023-01-12T07:21:19.694Z,79.72
2023-01-12T07:22:21.467Z,79.27
2023-01-12T07:23:23.334Z,79.42
2023-01-12T07:24:24.893Z,79.83
2023-01-12T07:25:27.751Z,79.95
2023-01-12T07:26:29.420Z,79.43
2023-01-12T07:27:31.296Z,79.67
2023-01-12T07:28:35.358Z,79.72
2023-01-12T07:29:37.221Z,79.48
2023-01-12T07:30:39.039Z,79.41
2023-01-12T07:31:40.618Z,79.56
2023-01-12T07:32:42.561Z,80.14
2023-01-12T07:33:44.226Z,80.04
2023-01-12T07:34:45.938Z,80.05
2023-01-12T07:35:48.262Z,79.90
2023-01-12T07:36:51.777Z,80.02
2023-01-12T07:37:56.020Z,80.04
2023-01-12T07:38:57.757Z,80.03
2023-01-12T07:39:59.479Z,80.17
2023-01-12T07:41:02.471Z,80.40
2023-01-12T07:42:22.544Z,80.85
2023-01-12T07:43:25.310Z,80.28
2023-01-12T07:44:27.192Z,80.74
2023-01-12T07:45:30.359Z,80.80
2023-01-12T07:46:32.563Z,80.60
2023-01-12T07:47:35.948Z,80.58
2023-01-12T07:48:37.594Z,81.52
2023-01-12T07:49:40.927Z,80.58
2023-01-12T07:50:42.778Z,80.25
2023-01-12T07:51:44.621Z,80.22
2023-01-12T07:52:49.052Z,80.64
2023-01-12T07:53:51.390Z,80.46
2023-01-12T07:54:53.378Z,80.46
2023-01-12T07:55:55.039Z,80.01
2023-01-12T07:56:59.030Z,80.06
2023-01-12T07:58:07.322Z,80.90
2023-01-12T07:59:09.030Z,79.60
2023-01-12T08:00:11.604Z,80.17
2023-01-12T08:01:13.232Z,80.43
2023-01-12T08:02:19.592Z,80.60
2023-01-12T08:03:21.334Z,80.59
2023-01-12T08:04:23.614Z,80.68
2023-01-12T08:05:25.718Z,80.43
2023-01-12T08:06:27.874Z,80.27
2023-01-12T08:07:32.307Z,80.39
2023-01-12T08:08:34.288Z,80.62
2023-01-12T08:09:35.928Z,81.55
2023-01-12T08:10:39.038Z,81.42
2023-01-12T08:11:41.006Z,80.95
2023-01-12T08:12:42.896Z,80.90
2023-01-12T08:13:44.769Z,80.19
2023-01-12T08:14:46.755Z,79.96
2023-01-12T08:15:50.458Z,80.11
2023-01-12T08:16:54.404Z,80.11
2023-01-12T08:18:06.151Z,79.89
2023-01-12T08:19:17.042Z,80.15
2023-01-12T08:20:35.287Z,80.27
2023-01-12T08:21:46.357Z,80.13
2023-01-12T08:22:52.427Z,80.94
2023-01-12T08:23:59.369Z,81.47
2023-01-12T08:25:12.323Z,81.00
2023-01-12T08:26:20.420Z,82.52
2023-01-12T08:27:25.640Z,81.02
2023-01-12T08:28:38.464Z,81.72
2023-01-12T08:29:50.785Z,82.93
2023-01-12T08:30:52.894Z,81.86
2023-01-12T08:31:54.513Z,81.58
2023-01-12T08:32:58.407Z,82.10
2023-01-12T08:34:00.580Z,82.21
2023-01-12T08:35:04.673Z,83.02
2023-01-12T08:36:09.817Z,83.16
2023-01-12T08:37:14.054Z,84.97
2023-01-12T08:38:15.851Z,83.37
2023-01-12T08:39:17.521Z,83.65
2023-01-12T08:40:19.529Z,83.83
2023-01-12T08:41:33.313Z,83.53
2023-01-12T08:42:35.149Z,83.36
2023-01-12T08:43:55.738Z,83.90
2023-01-12T08:44:58.245Z,82.66
2023-01-12T08:46:07.822Z,84.30
2023-01-12T08:47:30.621Z,83.30
2023-01-12T08:48:32.504Z,83.13
2023-01-12T08:49:34.394Z,83.41
2023-01-12T08:50:36.244Z,83.61
2023-01-12T08:51:40.926Z,83.67
2023-01-12T08:52:42.580Z,84.58
2023-01-12T08:53:44.412Z,84.58
2023-01-12T08:54:47.531Z,84.18
2023-01-12T08:55:56.001Z,83.80
2023-01-12T08:56:57.676Z,83.32
2023-01-12T08:58:00.959Z,83.37
2023-01-12T08:59:04.029Z,83.62
2023-01-12T09:00:07.164Z,83.66
2023-01-12T09:01:12.706Z,83.67
2023-01-12T09:02:16.278Z,82.96
2023-01-12T09:03:18.300Z,82.86
2023-01-12T09:04:20.329Z,82.94
2023-01-12T09:05:22.154Z,83.24
2023-01-12T09:06:32.399Z,82.19
2023-01-12T09:07:34.117Z,83.26
2023-01-12T09:08:36.111Z,82.32
2023-01-12T09:09:38.120Z,81.91
2023-01-12T09:10:39.675Z,82.21
2023-01-12T09:11:42.731Z,82.12
2023-01-12T09:12:44.707Z,82.40
2023-01-12T09:13:46.426Z,82.28
2023-01-12T09:14:48.318Z,82.63
2023-01-12T09:16:01.316Z,82.54
2023-01-12T09:17:12.792Z,81.34
2023-01-12T09:18:14.490Z,81.89
2023-01-12T09:19:16.105Z,81.18
2023-01-12T09:20:17.791Z,81.34
2023-01-12T09:21:22.021Z,81.07
2023-01-12T09:22:24.227Z,81.25
2023-01-12T09:23:27.544Z,81.32
2023-01-12T09:24:29.157Z,81.04
2023-01-12T09:25:30.747Z,81.51
2023-01-12T09:26:37.972Z,80.27
2023-01-12T09:27:39.949Z,80.20
2023-01-12T09:28:44.521Z,80.04
2023-01-12T09:29:46.827Z,80.52
2023-01-12T09:30:48.855Z,80.32
2023-01-12T09:31:50.753Z,79.61
2023-01-12T09:32:55.161Z,79.64
2023-01-12T09:33:58.117Z,79.21
2023-01-12T09:35:00.231Z,80.77
2023-01-12T09:36:13.652Z,78.73
2023-01-12T09:37:15.659Z,78.02
2023-01-12T09:38:17.862Z,77.79
2023-01-12T09:39:27.219Z,77.35
2023-01-12T09:40:29.525Z,77.37
2023-01-12T09:41:56.331Z,76.52
2023-01-12T09:43:18.293Z,77.38
2023-01-12T09:44:51.503Z,76.97
2023-01-12T09:46:12.057Z,76.90
2023-01-12T09:47:39.880Z,77.35
2023-01-12T09:48:41.800Z,77.13
2023-01-12T09:49:53.873Z,77.11
2023-01-12T09:51:08.053Z,77.58
2023-01-12T09:52:24.841Z,77.14
2023-01-12T09:53:35.008Z,77.33
2023-01-12T09:54:37.137Z,78.09
2023-01-12T09:56:17.133Z,77.34
2023-01-12T09:57:31.160Z,77.16
2023-01-12T09:59:08.262Z,77.42
2023-01-12T10:00:13.215Z,77.57
2023-01-12T10:01:29.278Z,76.97
2023-01-12T10:02:39.512Z,76.99
2023-01-12T10:03:43.610Z,76.38
2023-01-12T10:04:48.041Z,75.57
2023-01-12T10:05:55.025Z,74.86
2023-01-12T10:06:57.597Z,73.98
2023-01-12T10:07:59.861Z,72.53
2023-01-12T10:09:07.255Z,72.35
2023-01-12T10:10:14.360Z,73.20
2023-01-12T10:11:30.543Z,74.31
2023-01-12T10:12:42.298Z,74.82
2023-01-12T10:14:16.207Z,75.33
2023-01-12T10:15:32.148Z,75.89
2023-01-12T10:17:05.567Z,76.05
2023-01-12T10:18:21.194Z,75.97
2023-01-12T10:19:49.974Z,76.39
2023-01-12T10:20:53.186Z,77.52
2023-01-12T10:21:56.366Z,76.80
2023-01-12T10:23:10.406Z,76.87
2023-01-12T10:24:13.273Z,77.10
2023-01-12T10:25:39.816Z,77.01
2023-01-12T10:26:46.211Z,77.57
2023-01-12T10:27:52.471Z,76.12
2023-01-12T10:28:55.971Z,76.37
2023-01-12T10:29:58.642Z,75.67
2023-01-12T10:31:01.074Z,75.59
2023-01-12T10:32:03.028Z,76.04
2023-01-12T10:33:18.575Z,75.64
2023-01-12T10:34:21.505Z,75.96
2023-01-12T10:35:25.633Z,76.79
2023-01-12T10:36:27.634Z,76.07
2023-01-12T10:37:29.333Z,75.98
2023-01-12T10:38:55.500Z,75.56
2023-01-12T10:39:58.363Z,75.64
2023-01-12T10:41:27.224Z,75.71
2023-01-12T10:42:47.717Z,75.52
2023-01-12T10:43:55.062Z,76.06
2023-01-12T10:45:18.759Z,76.05
2023-01-12T10:46:27.333Z,75.42
2023-01-12T10:47:34.082Z,75.97
2023-01-12T10:48:36.464Z,75.67
2023-01-12T10:49:38.397Z,75.90
2023-01-12T10:50:40.424Z,76.80
2023-01-12T10:51:59.344Z,76.99
2023-01-12T10:53:11.661Z,75.84
2023-01-12T10:54:19.746Z,75.84
2023-01-12T10:55:24.064Z,74.46
2023-01-12T10:56:31.418Z,75.02
2023-01-12T10:57:33.967Z,74.82
2023-01-12T10:58:36.319Z,73.67
2023-01-12T10:59:40.015Z,72.94
2023-01-12T11:00:48.906Z,73.02
2023-01-12T11:02:12.420Z,73.24
2023-01-12T11:03:34.349Z,73.18
2023-01-12T11:04:48.146Z,72.74
2023-01-12T11:05:50.825Z,72.22
2023-01-12T11:06:57.393Z,72.23
2023-01-12T11:08:00.323Z,70.08
2023-01-12T11:09:25.476Z,69.87
2023-01-12T11:10:33.095Z,68.13
2023-01-12T11:11:35.130Z,69.25
2023-01-12T11:12:40.277Z,69.66
2023-01-12T11:13:42.139Z,69.18
2023-01-12T11:14:44.886Z,69.48
2023-01-12T11:16:02.453Z,69.51
2023-01-12T11:17:49.528Z,71.21
2023-01-12T11:18:56.215Z,71.69
2023-01-12T11:20:01.721Z,69.71
2023-01-12T11:21:09.077Z,72.01
2023-01-12T11:22:18.938Z,70.17
2023-01-12T11:23:55.871Z,70.88
2023-01-12T11:25:14.843Z,71.55
2023-01-12T11:26:21.102Z,70.65
2023-01-12T11:27:36.506Z,70.84
2023-01-12T11:28:48.005Z,71.37
2023-01-12T11:29:56.447Z,71.93
2023-01-12T11:31:00.923Z,72.81
2023-01-12T11:32:11.043Z,73.32
2023-01-12T11:33:24.505Z,73.88
2023-01-12T11:34:33.134Z,72.77
2023-01-12T11:35:45.310Z,72.37
2023-01-12T11:36:52.272Z,71.72
2023-01-12T11:38:01.264Z,72.13
2023-01-12T11:39:12.935Z,72.01
2023-01-12T11:40:34.911Z,73.36
2023-01-12T11:42:04.703Z,72.70
2023-01-12T11:43:50.801Z,72.97
2023-01-12T11:45:07.800Z,73.74
2023-01-12T11:46:42.645Z,72.97
2023-01-12T11:47:53.297Z,73.39
2023-01-12T11:48:58.488Z,75.87
2023-01-12T11:50:26.096Z,75.09
2023-01-12T11:51:28.266Z,74.18
2023-01-12T11:52:30.899Z,75.34
2023-01-12T11:53:32.974Z,76.09
2023-01-12T11:54:38.236Z,75.42
2023-01-12T11:56:14.218Z,74.77
2023-01-12T11:57:24.545Z,75.47
2023-01-12T11:58:44.442Z,75.29
2023-01-12T12:00:26.201Z,74.75
2023-01-12T12:01:33.867Z,74.81
2023-01-12T12:02:46.198Z,74.91
2023-01-12T12:03:55.644Z,75.26
2023-01-12T12:05:09.074Z,75.40
2023-01-12T12:06:31.404Z,77.79
2023-01-12T12:07:45.786Z,74.65
2023-01-12T12:09:17.285Z,74.00
2023-01-12T12:10:30.955Z,73.85
2023-01-12T12:11:53.840Z,73.69
2023-01-12T12:13:16.598Z,74.44
2023-01-12T12:14:40.296Z,73.43
2023-01-12T12:16:03.321Z,73.51
2023-01-12T12:17:37.249Z,74.25
2023-01-12T12:19:07.573Z,74.36
2023-01-12T12:20:31.354Z,74.79
2023-01-12T12:21:51.503Z,74.17
2023-01-12T12:23:11.983Z,73.11
2023-01-12T12:24:32.387Z,73.07
2023-01-12T12:25:55.931Z,74.47
2023-01-12T12:27:15.145Z,75.24
2023-01-12T12:28:46.330Z,75.62
2023-01-12T12:30:03.384Z,76.95
2023-01-12T12:31:24.064Z,76.01
2023-01-12T12:32:34.777Z,75.83
2023-01-12T12:33:45.258Z,75.62
2023-01-12T12:35:33.695Z,75.68
2023-01-12T12:36:54.301Z,75.67
2023-01-12T12:38:30.443Z,76.66
2023-01-12T12:39:51.477Z,77.21
2023-01-12T12:41:41.592Z,76.67
2023-01-12T12:43:07.983Z,76.77
2023-01-12T12:44:49.270Z,76.88
2023-01-12T12:45:54.135Z,75.91
2023-01-12T12:47:08.158Z,75.92
2023-01-12T12:48:12.974Z,75.92
2023-01-12T12:49:22.239Z,76.02
2023-01-12T12:50:40.756Z,75.60
2023-01-12T12:51:44.049Z,75.69
2023-01-12T12:52:54.307Z,76.30
2023-01-12T12:53:59.491Z,76.81
2023-01-12T12:55:05.071Z,76.58
2023-01-12T12:56:12.931Z,75.89
2023-01-12T12:57:18.243Z,76.50
2023-01-12T12:58:22.970Z,76.39
2023-01-12T12:59:34.141Z,76.23
2023-01-12T13:00:42.986Z,75.88
2023-01-12T13:01:58.376Z,75.94
2023-01-12T13:03:00.480Z,76.25
2023-01-12T13:04:04.404Z,76.45
2023-01-12T13:05:08.974Z,76.17
2023-01-12T13:06:19.627Z,75.76
2023-01-12T13:07:23.588Z,75.71
2023-01-12T13:08:27.918Z,76.28
2023-01-12T13:09:29.831Z,77.14
2023-01-12T13:10:33.141Z,76.38
2023-01-12T13:11:56.374Z,77.03
2023-01-12T13:13:02.594Z,77.23
2023-01-12T13:14:16.240Z,77.25
2023-01-12T13:15:25.513Z,76.78
2023-01-12T13:16:31.172Z,75.97
2023-01-12T13:17:32.938Z,76.22
2023-01-12T13:19:00.477Z,75.94
2023-01-12T13:20:10.675Z,77.40
2023-01-12T13:21:27.951Z,76.14
2023-01-12T13:22:32.642Z,76.12
2023-01-12T13:23:49.071Z,75.85
2023-01-12T13:24:52.978Z,75.50
2023-01-12T13:25:57.950Z,74.92
2023-01-12T13:27:02.347Z,74.62
2023-01-12T13:28:05.092Z,75.05
2023-01-12T13:29:28.613Z,74.73
2023-01-12T13:30:30.403Z,74.95
2023-01-12T13:31:33.039Z,74.75
2023-01-12T13:32:40.860Z,75.52
2023-01-12T13:33:42.914Z,75.59
2023-01-12T13:34:46.453Z,75.66
2023-01-12T13:35:48.377Z,75.52
2023-01-12T13:37:39.476Z,76.24
2023-01-12T13:38:52.633Z,75.74
2023-01-12T13:40:15.830Z,76.20
2023-01-12T13:41:42.156Z,76.75
2023-01-12T13:43:05.169Z,75.94
2023-01-12T13:44:31.755Z,75.27
2023-01-12T13:45:36.387Z,75.77
2023-01-12T13:46:47.935Z,75.88
2023-01-12T13:47:54.412Z,75.62
2023-01-12T13:48:58.874Z,76.00
2023-01-12T13:50:04.782Z,75.91
2023-01-12T13:51:18.378Z,76.72
2023-01-12T13:52:31.619Z,75.99
2023-01-12T13:53:33.900Z,75.67
2023-01-12T13:54:36.261Z,75.54
2023-01-12T13:55:40.006Z,75.64
2023-01-12T13:56:43.385Z,75.75
2023-01-12T13:58:07.282Z,74.58
2023-01-12T13:59:19.470Z,73.52
2023-01-12T14:00:24.261Z,73.36
2023-01-12T14:01:27.703Z,73.16
2023-01-12T14:02:32.962Z,74.08
2023-01-12T14:03:44.286Z,73.45
2023-01-12T14:05:05.975Z,74.11
2023-01-12T14:06:14.547Z,73.98
2023-01-12T14:07:24.923Z,74.35
2023-01-12T14:08:50.690Z,74.86
2023-01-12T14:10:19.171Z,74.88
2023-01-12T14:11:52.112Z,75.68
2023-01-12T14:13:06.255Z,76.11
2023-01-12T14:14:36.079Z,76.23
2023-01-12T14:15:58.502Z,76.32
2023-01-12T14:17:27.729Z,76.20
2023-01-12T14:18:44.838Z,75.94
2023-01-12T14:19:51.660Z,76.42
2023-01-12T14:20:56.631Z,76.19
2023-01-12T14:22:02.849Z,76.83
2023-01-12T14:23:24.511Z,77.39
2023-01-12T14:24:27.939Z,77.46
2023-01-12T14:25:30.453Z,78.10
2023-01-12T14:26:35.516Z,77.53
2023-01-12T14:27:37.586Z,77.87
2023-01-12T14:28:43.035Z,78.26
2023-01-12T14:29:45.219Z,78.14
2023-01-12T14:30:59.375Z,78.42
2023-01-12T14:32:01.577Z,79.01
2023-01-12T14:33:04.300Z,78.46
2023-01-12T14:34:20.142Z,78.75